Time;durP1;ratioP1;P1;durP2;ratioP2;P2;SDS_P1;SDS_P2;PMS_P1;PMS_P2;Temp;Humidity;BMP_temperature;BMP_pressure;BME280_temperature;BME280_humidity;BME280_pressure;Samples;Min_cycle;Max_cycle;Signal;HPM_P1;HPM_P2
2023/01/01 00:01:26;;;;;;;14.73;10.00;;;;;;;;;;5012175;28;20831;-42
2023/01/01 00:03:52;;;;;;;18.37;10.03;;;;;;;;;;5008335;28;20475;-42
2023/01/01 00:06:19;;;;;;;17.27;9.13;;;;;;;;;;5011752;28;20419;-43
2023/01/01 00:08:45;;;;;;;13.23;8.77;;;;;;;;;;5004899;28;20979;-44
2023/01/01 00:11:11;;;;;;;15.60;11.00;;;;;;;;;;5011938;28;20566;-42
2023/01/01 00:13:38;;;;;;;14.07;9.63;;;;;;;;;;5012055;28;20428;-42
2023/01/01 00:16:04;;;;;;;15.10;8.57;;;;;;;;;;5011309;28;20978;-43
2023/01/01 00:18:30;;;;;;;11.90;8.70;;;;;;;;;;5008791;28;20460;-42
2023/01/01 00:21:03;;;;;;;14.37;9.63;;;;;;;;;;5011827;28;20423;-42
2023/01/01 00:23:29;;;;;;;19.10;9.70;;;;;;;;;;5004830;28;20840;-42
2023/01/01 00:25:55;;;;;;;17.67;10.13;;;;;;;;;;5011206;28;20415;-42
2023/01/01 00:28:21;;;;;;;14.10;10.60;;;;;;;;;;5010558;28;20459;-42
2023/01/01 00:30:47;;;;;;;13.23;9.93;;;;;;;;;;5011495;28;20469;-42
2023/01/01 00:33:13;;;;;;;15.73;11.37;;;;;;;;;;5011589;28;20423;-42
2023/01/01 00:35:39;;;;;;;24.30;11.30;;;;;;;;;;5010596;28;20411;-44
2023/01/01 00:38:06;;;;;;;18.37;12.07;;;;;;;;;;5009611;28;20931;-44
2023/01/01 00:40:32;;;;;;;15.40;11.13;;;;;;;;;;5011646;28;20769;-43
2023/01/01 00:42:57;;;;;;;16.93;10.10;;;;;;;;;;5003793;28;20403;-44
2023/01/01 00:45:24;;;;;;;18.30;10.63;;;;;;;;;;5011103;28;20914;-44
2023/01/01 00:47:50;;;;;;;21.03;13.20;;;;;;;;;;5010205;28;20445;-44
2023/01/01 00:50:16;;;;;;;16.13;11.57;;;;;;;;;;5001127;28;20474;-44
2023/01/01 00:52:43;;;;;;;17.97;11.27;;;;;;;;;;4992088;28;20427;-43
2023/01/01 00:55:09;;;;;;;27.37;11.30;;;;;;;;;;4992058;28;20449;-43
2023/01/01 00:57:35;;;;;;;17.80;12.13;;;;;;;;;;4991763;28;20435;-43
2023/01/01 01:00:01;;;;;;;15.97;10.37;;;;;;;;;;4995538;28;20424;-43
2023/01/01 01:02:27;;;;;;;16.27;10.40;;;;;;;;;;4995916;28;20434;-43
2023/01/01 01:04:53;;;;;;;15.47;11.00;;;;;;;;;;4996130;28;20426;-43
2023/01/01 01:07:19;;;;;;;15.50;10.90;;;;;;;;;;4995750;28;20454;-43
2023/01/01 01:09:45;;;;;;;16.63;11.30;;;;;;;;;;4995622;28;20499;-43
2023/01/01 01:12:11;;;;;;;17.90;10.03;;;;;;;;;;4995710;28;20947;-43
2023/01/01 01:14:37;;;;;;;12.20;9.67;;;;;;;;;;4995661;28;20982;-43
2023/01/01 01:17:03;;;;;;;16.93;9.60;;;;;;;;;;4995295;28;20820;-43
2023/01/01 01:19:29;;;;;;;16.70;8.50;;;;;;;;;;5015305;28;20465;-44
2023/01/01 01:21:55;;;;;;;14.60;9.03;;;;;;;;;;5015184;28;20534;-43
2023/01/01 01:24:21;;;;;;;11.00;8.00;;;;;;;;;;5007854;28;20477;-44
2023/01/01 01:26:47;;;;;;;9.70;6.73;;;;;;;;;;5011605;28;20419;-43
2023/01/01 01:29:13;;;;;;;16.47;8.17;;;;;;;;;;5013116;28;20592;-43
2023/01/01 01:31:38;;;;;;;15.20;7.20;;;;;;;;;;5014568;28;20465;-43
2023/01/01 01:34:04;;;;;;;11.73;6.97;;;;;;;;;;5012929;28;20407;-44
2023/01/01 01:36:30;;;;;;;9.80;6.57;;;;;;;;;;5011352;28;20411;-44
2023/01/01 01:38:56;;;;;;;8.97;6.70;;;;;;;;;;5014662;28;20427;-43
2023/01/01 01:41:23;;;;;;;9.80;5.80;;;;;;;;;;5014584;28;20418;-43
2023/01/01 01:43:52;;;;;;;7.80;5.97;;;;;;;;;;5012878;28;20915;-43
2023/01/01 01:46:19;;;;;;;8.37;5.60;;;;;;;;;;5014142;28;20425;-44
2023/01/01 01:48:49;;;;;;;4.80;4.40;;;;;;;;;;5009334;28;20949;-44
2023/01/01 01:51:17;;;;;;;9.30;4.80;;;;;;;;;;5014739;28;20445;-43
2023/01/01 01:53:45;;;;;;;11.53;4.80;;;;;;;;;;5012613;28;20425;-43
2023/01/01 01:56:15;;;;;;;5.87;4.37;;;;;;;;;;5008155;28;20422;-44
2023/01/01 01:58:41;;;;;;;8.40;3.87;;;;;;;;;;5014260;28;20435;-43
2023/01/01 02:01:07;;;;;;;7.30;4.23;;;;;;;;;;5010463;28;20550;-43
2023/01/01 02:03:39;;;;;;;9.97;4.43;;;;;;;;;;5013749;28;20430;-43
2023/01/01 02:06:05;;;;;;;4.10;3.40;;;;;;;;;;5007322;28;20958;-43
2023/01/01 02:08:33;;;;;;;5.20;3.00;;;;;;;;;;5013650;28;20435;-43
2023/01/01 02:10:58;;;;;;;4.50;4.10;;;;;;;;;;5013205;28;20462;-43
2023/01/01 02:13:24;;;;;;;4.67;2.93;;;;;;;;;;5011359;28;20404;-44
2023/01/01 02:15:53;;;;;;;4.80;2.97;;;;;;;;;;5013194;28;20434;-44
2023/01/01 02:18:39;;;;;;;4.13;2.73;;;;;;;;;;5013959;28;20470;-43
2023/01/01 02:21:07;;;;;;;3.93;2.43;;;;;;;;;;5007206;28;20427;-43
2023/01/01 02:23:33;;;;;;;3.40;2.60;;;;;;;;;;5013930;28;20425;-43
2023/01/01 02:26:06;;;;;;;4.87;2.23;;;;;;;;;;5013344;28;20407;-43
2023/01/01 02:28:41;;;;;;;2.43;2.23;;;;;;;;;;5010682;28;20414;-44
2023/01/01 02:31:08;;;;;;;5.47;2.40;;;;;;;;;;5013565;28;20624;-43
2023/01/01 02:33:34;;;;;;;3.53;3.17;;;;;;;;;;5007399;28;20420;-43
2023/01/01 02:36:02;;;;;;;5.23;2.63;;;;;;;;;;5013326;28;20405;-44
2023/01/01 02:38:41;;;;;;;3.17;2.90;;;;;;;;;;5013323;28;20451;-43
2023/01/01 02:41:25;;;;;;;7.50;2.43;;;;;;;;;;5007370;28;20403;-43
2023/01/01 02:43:52;;;;;;;6.07;2.17;;;;;;;;;;5013204;28;20558;-43
2023/01/01 02:46:18;;;;;;;4.83;2.30;;;;;;;;;;5013101;28;20451;-43
2023/01/01 02:48:46;;;;;;;5.30;2.80;;;;;;;;;;5007170;28;20439;-44
2023/01/01 02:51:21;;;;;;;4.33;2.30;;;;;;;;;;5013272;28;20814;-44
2023/01/01 02:54:03;;;;;;;2.70;2.10;;;;;;;;;;5013280;28;20410;-43
2023/01/01 02:56:55;;;;;;;3.90;2.20;;;;;;;;;;5012763;28;20985;-44
2023/01/01 03:02:23;;;;;;;3.50;1.90;;;;;;;;;;5008084;28;20791;-43
2023/01/01 03:04:55;;;;;;;3.33;2.00;;;;;;;;;;5005633;28;20415;-43
2023/01/01 03:07:21;;;;;;;4.30;1.87;;;;;;;;;;5011677;28;20799;-43
2023/01/01 03:09:54;;;;;;;3.43;1.93;;;;;;;;;;5013123;28;20459;-43
2023/01/01 03:12:20;;;;;;;4.80;2.30;;;;;;;;;;5009921;28;20963;-43
2023/01/01 03:14:49;;;;;;;3.27;2.20;;;;;;;;;;5011777;28;20407;-44
2023/01/01 03:17:27;;;;;;;3.77;2.27;;;;;;;;;;5012478;28;20434;-44
2023/01/01 03:19:54;;;;;;;4.83;2.33;;;;;;;;;;5005270;28;20469;-44
2023/01/01 03:22:21;;;;;;;4.60;2.20;;;;;;;;;;5010649;28;20423;-44
2023/01/01 03:24:51;;;;;;;4.80;2.63;;;;;;;;;;5012860;28;20450;-44
2023/01/01 03:27:23;;;;;;;2.40;2.20;;;;;;;;;;5008087;28;20916;-44
2023/01/01 03:29:50;;;;;;;4.60;2.10;;;;;;;;;;5012572;28;20475;-44
2023/01/01 03:32:20;;;;;;;3.53;2.03;;;;;;;;;;5010160;28;20414;-44
2023/01/01 03:34:54;;;;;;;5.10;2.00;;;;;;;;;;5011310;28;20399;-43
2023/01/01 03:37:25;;;;;;;2.60;2.40;;;;;;;;;;5007867;28;20438;-44
2023/01/01 03:39:52;;;;;;;2.37;1.90;;;;;;;;;;5005388;28;20411;-43
2023/01/01 03:42:38;;;;;;;2.70;1.67;;;;;;;;;;5012097;28;20434;-43
2023/01/01 03:45:06;;;;;;;2.77;2.10;;;;;;;;;;5007665;28;20837;-43
2023/01/01 03:47:32;;;;;;;3.30;1.93;;;;;;;;;;5008490;28;20506;-43
2023/01/01 03:49:59;;;;;;;4.53;2.27;;;;;;;;;;5012209;28;20463;-43
2023/01/01 03:52:25;;;;;;;4.50;1.97;;;;;;;;;;5012323;28;20749;-44
2023/01/01 03:55:10;;;;;;;9.13;2.33;;;;;;;;;;5012231;28;20403;-44
2023/01/01 03:57:54;;;;;;;12.40;2.40;;;;;;;;;;5011833;28;20847;-44
2023/01/01 04:00:22;;;;;;;1.77;1.67;;;;;;;;;;5009772;28;20914;-43
2023/01/01 04:02:56;;;;;;;4.97;2.90;;;;;;;;;;5011715;28;20787;-43
2023/01/01 04:05:23;;;;;;;5.73;1.97;;;;;;;;;;5007990;28;20481;-44
2023/01/01 04:07:49;;;;;;;4.27;2.03;;;;;;;;;;5004999;28;20865;-43
2023/01/01 04:10:16;;;;;;;8.83;2.10;;;;;;;;;;5011537;28;20957;-43
2023/01/01 04:12:49;;;;;;;2.13;1.80;;;;;;;;;;5011951;28;20422;-43
2023/01/01 04:15:16;;;;;;;4.20;1.90;;;;;;;;;;5008497;28;20417;-44
2023/01/01 04:17:42;;;;;;;3.73;1.73;;;;;;;;;;5011616;28;20431;-44
2023/01/01 04:20:09;;;;;;;3.80;2.07;;;;;;;;;;5007992;28;21014;-43
2023/01/01 04:22:35;;;;;;;8.20;2.40;;;;;;;;;;5009053;28;20514;-45
2023/01/01 04:25:01;;;;;;;6.97;2.10;;;;;;;;;;5011936;28;20991;-43
2023/01/01 04:27:27;;;;;;;4.33;2.30;;;;;;;;;;5011512;28;20471;-43
2023/01/01 04:29:54;;;;;;;2.97;1.80;;;;;;;;;;5008401;28;20494;-43
2023/01/01 04:32:21;;;;;;;1.90;1.70;;;;;;;;;;5011835;28;20917;-44
2023/01/01 04:34:47;;;;;;;3.93;1.83;;;;;;;;;;5004651;28;20439;-43
2023/01/01 04:37:13;;;;;;;4.90;1.93;;;;;;;;;;5011132;28;20969;-43
2023/01/01 04:39:39;;;;;;;2.40;1.60;;;;;;;;;;5011818;28;20450;-43
2023/01/01 04:42:05;;;;;;;3.83;2.10;;;;;;;;;;5011444;28;20411;-44
2023/01/01 04:44:31;;;;;;;2.70;2.10;;;;;;;;;;5008660;28;20461;-44
2023/01/01 04:46:57;;;;;;;2.17;1.80;;;;;;;;;;5011399;28;20489;-43
2023/01/01 04:49:23;;;;;;;2.87;1.87;;;;;;;;;;5004821;28;22402;-44
2023/01/01 04:51:49;;;;;;;2.77;1.90;;;;;;;;;;5011406;28;20427;-44
2023/01/01 04:54:15;;;;;;;2.10;1.90;;;;;;;;;;5011643;28;20407;-44
2023/01/01 04:56:41;;;;;;;4.03;1.90;;;;;;;;;;5011100;28;20413;-43
2023/01/01 04:59:07;;;;;;;2.70;1.50;;;;;;;;;;5011691;28;20862;-44
2023/01/01 05:01:33;;;;;;;7.83;1.87;;;;;;;;;;5011520;28;20817;-43
2023/01/01 05:03:59;;;;;;;2.90;2.00;;;;;;;;;;5004921;28;20489;-43
2023/01/01 05:06:25;;;;;;;3.47;1.73;;;;;;;;;;5011117;28;20411;-44
2023/01/01 05:08:53;;;;;;;5.53;2.20;;;;;;;;;;5011417;28;20426;-43
2023/01/01 05:11:24;;;;;;;3.63;1.80;;;;;;;;;;5007753;28;20958;-44
2023/01/01 05:13:51;;;;;;;2.70;1.87;;;;;;;;;;5011458;28;20412;-43
2023/01/01 05:16:18;;;;;;;2.63;2.07;;;;;;;;;;5006215;28;20427;-44
2023/01/01 05:18:44;;;;;;;4.43;1.80;;;;;;;;;;5009946;28;20430;-44
2023/01/01 05:21:11;;;;;;;2.07;1.90;;;;;;;;;;5011310;28;20402;-43
2023/01/01 05:23:37;;;;;;;3.10;2.17;;;;;;;;;;5011274;28;20511;-43
2023/01/01 05:26:30;;;;;;;3.03;1.70;;;;;;;;;;5007789;28;20934;-43
2023/01/01 05:28:57;;;;;;;7.97;2.07;;;;;;;;;;5006498;28;20449;-44
2023/01/01 05:31:24;;;;;;;5.03;2.10;;;;;;;;;;5004598;28;20840;-43
2023/01/01 05:33:54;;;;;;;6.53;1.60;;;;;;;;;;5011161;28;20463;-43
2023/01/01 05:36:24;;;;;;;3.83;2.40;;;;;;;;;;5011053;28;20421;-43
2023/01/01 05:38:50;;;;;;;1.70;1.60;;;;;;;;;;5008037;28;20517;-44
2023/01/01 05:41:17;;;;;;;4.20;2.23;;;;;;;;;;5011158;28;20426;-43
2023/01/01 05:43:44;;;;;;;2.27;2.00;;;;;;;;;;5010853;28;20412;-44
2023/01/01 05:46:11;;;;;;;3.90;1.90;;;;;;;;;;5006978;28;20410;-44
2023/01/01 05:48:37;;;;;;;8.53;2.20;;;;;;;;;;5014516;28;20457;-43
2023/01/01 05:51:08;;;;;;;6.27;2.10;;;;;;;;;;5014712;28;20524;-44
2023/01/01 05:53:34;;;;;;;2.27;1.80;;;;;;;;;;5011309;28;20934;-43
2023/01/01 05:56:00;;;;;;;2.77;2.10;;;;;;;;;;5009317;28;20411;-44
2023/01/01 05:58:26;;;;;;;2.33;1.80;;;;;;;;;;5014273;28;20478;-44
2023/01/01 06:00:53;;;;;;;1.90;1.80;;;;;;;;;;5011385;28;20412;-43
2023/01/01 06:03:19;;;;;;;3.57;2.17;;;;;;;;;;5009712;28;20418;-43
2023/01/01 06:05:45;;;;;;;3.53;2.00;;;;;;;;;;5013198;28;20582;-43
2023/01/01 06:08:11;;;;;;;4.10;1.53;;;;;;;;;;5014243;28;20430;-43
2023/01/01 06:10:37;;;;;;;3.00;2.07;;;;;;;;;;5009290;28;20502;-44
2023/01/01 06:13:03;;;;;;;4.60;2.20;;;;;;;;;;5014105;28;20437;-43
2023/01/01 06:15:29;;;;;;;3.00;1.90;;;;;;;;;;5006133;28;20425;-44
2023/01/01 06:17:55;;;;;;;2.70;2.10;;;;;;;;;;5020972;28;20455;-44
2023/01/01 06:20:21;;;;;;;3.40;2.03;;;;;;;;;;5005672;28;20460;-44
2023/01/01 06:22:47;;;;;;;6.03;2.70;;;;;;;;;;5013948;28;20773;-43
2023/01/01 06:25:13;;;;;;;2.60;2.17;;;;;;;;;;5013868;28;20437;-44
2023/01/01 06:27:39;;;;;;;2.03;1.80;;;;;;;;;;5012735;28;20444;-43
2023/01/01 06:30:06;;;;;;;2.33;2.13;;;;;;;;;;5013937;28;20479;-43
2023/01/01 06:32:32;;;;;;;8.40;2.17;;;;;;;;;;5013728;28;20463;-43
2023/01/01 06:34:58;;;;;;;5.77;2.30;;;;;;;;;;5010529;28;20854;-42
2023/01/01 06:37:24;;;;;;;3.00;2.00;;;;;;;;;;5008099;28;20988;-42
2023/01/01 06:39:50;;;;;;;5.00;2.47;;;;;;;;;;5013550;28;20424;-42
2023/01/01 06:42:16;;;;;;;3.70;2.50;;;;;;;;;;5013479;28;20510;-42
2023/01/01 06:44:42;;;;;;;2.70;1.87;;;;;;;;;;5011607;28;20431;-42
2023/01/01 06:47:07;;;;;;;3.53;1.90;;;;;;;;;;5013539;28;20430;-42
2023/01/01 06:49:33;;;;;;;2.70;1.80;;;;;;;;;;5013138;28;20465;-43
2023/01/01 06:51:59;;;;;;;4.57;2.37;;;;;;;;;;5008140;28;20413;-43
2023/01/01 06:54:25;;;;;;;1.83;1.70;;;;;;;;;;5013302;28;20418;-42
2023/01/01 06:56:51;;;;;;;3.17;1.80;;;;;;;;;;5012491;28;20981;-42
2023/01/01 06:59:17;;;;;;;3.07;2.00;;;;;;;;;;5011326;28;20929;-42
2023/01/01 07:01:43;;;;;;;1.97;1.60;;;;;;;;;;5013048;28;20421;-42
2023/01/01 07:04:14;;;;;;;1.97;1.77;;;;;;;;;;5010597;28;20407;-42
2023/01/01 07:06:40;;;;;;;4.47;2.00;;;;;;;;;;5010918;28;20403;-43
2023/01/01 07:09:06;;;;;;;4.73;2.20;;;;;;;;;;5013145;28;20402;-42
2023/01/01 07:11:33;;;;;;;4.30;1.70;;;;;;;;;;5012662;28;20499;-42
2023/01/01 07:13:59;;;;;;;3.97;1.93;;;;;;;;;;5012962;28;20392;-43
2023/01/01 07:16:25;;;;;;;3.03;1.63;;;;;;;;;;5009193;28;20517;-42
2023/01/01 07:18:51;;;;;;;2.70;2.10;;;;;;;;;;5012801;28;20435;-42
2023/01/01 07:21:28;;;;;;;3.60;2.10;;;;;;;;;;5007638;28;20485;-42
2023/01/01 07:23:55;;;;;;;6.93;1.87;;;;;;;;;;5012666;28;20910;-44
2023/01/01 07:26:21;;;;;;;5.43;2.50;;;;;;;;;;5011863;28;20913;-42
2023/01/01 07:28:47;;;;;;;3.73;2.40;;;;;;;;;;5011902;28;20436;-42
2023/01/01 07:31:13;;;;;;;8.30;1.90;;;;;;;;;;5011326;28;20465;-42
2023/01/01 07:33:39;;;;;;;4.07;2.10;;;;;;;;;;5012456;28;20434;-42
2023/01/01 07:36:05;;;;;;;4.57;2.10;;;;;;;;;;5005979;28;20541;-42
2023/01/01 07:38:31;;;;;;;4.20;2.10;;;;;;;;;;5004209;28;20496;-42
2023/01/01 07:40:57;;;;;;;3.93;2.07;;;;;;;;;;5010940;28;20906;-42
2023/01/01 07:43:23;;;;;;;13.77;2.30;;;;;;;;;;5012541;28;20783;-42
2023/01/01 07:45:49;;;;;;;21.23;3.23;;;;;;;;;;5012221;28;20790;-43
2023/01/01 07:48:15;;;;;;;2.87;1.80;;;;;;;;;;5007591;28;20484;-42
2023/01/01 07:50:42;;;;;;;7.90;2.80;;;;;;;;;;5005622;28;20464;-42
2023/01/01 07:53:08;;;;;;;3.10;2.30;;;;;;;;;;5012273;28;21047;-42
2023/01/01 07:55:34;;;;;;;3.77;1.93;;;;;;;;;;5012135;28;20424;-42
2023/01/01 07:58:00;;;;;;;3.23;2.57;;;;;;;;;;5009169;28;20848;-42
2023/01/01 08:00:26;;;;;;;4.60;2.20;;;;;;;;;;5013489;28;20432;-44
2023/01/01 08:02:52;;;;;;;5.63;2.20;;;;;;;;;;4993956;28;20502;-43
2023/01/01 08:05:18;;;;;;;3.30;2.63;;;;;;;;;;5007069;28;20917;-43
2023/01/01 08:07:45;;;;;;;11.90;2.43;;;;;;;;;;4992042;28;20443;-43
2023/01/01 08:10:11;;;;;;;7.50;3.83;;;;;;;;;;5011191;28;20496;-44
2023/01/01 08:12:37;;;;;;;5.43;2.47;;;;;;;;;;5008410;28;20413;-44
2023/01/01 08:15:03;;;;;;;2.63;2.30;;;;;;;;;;5012178;28;20425;-43
2023/01/01 08:17:29;;;;;;;6.80;2.67;;;;;;;;;;5004749;28;20470;-44
2023/01/01 08:19:55;;;;;;;3.83;2.43;;;;;;;;;;5007798;28;20422;-42
2023/01/01 08:22:21;;;;;;;6.30;2.20;;;;;;;;;;5006578;28;20418;-43
2023/01/01 08:24:47;;;;;;;2.20;1.70;;;;;;;;;;5011061;28;20413;-43
2023/01/01 08:27:14;;;;;;;4.90;2.33;;;;;;;;;;5008644;28;20492;-43
2023/01/01 08:29:40;;;;;;;7.10;2.40;;;;;;;;;;5011668;28;20468;-43
2023/01/01 08:32:06;;;;;;;5.17;2.87;;;;;;;;;;5005695;28;20415;-43
2023/01/01 08:34:32;;;;;;;2.57;2.37;;;;;;;;;;5011776;28;20911;-43
2023/01/01 08:36:58;;;;;;;17.37;4.33;;;;;;;;;;5011203;28;20452;-43
2023/01/01 08:39:24;;;;;;;3.43;2.10;;;;;;;;;;5011653;28;20437;-43
2023/01/01 08:41:50;;;;;;;5.63;2.17;;;;;;;;;;5011774;28;20882;-43
2023/01/01 08:44:16;;;;;;;3.57;2.03;;;;;;;;;;5007298;28;20829;-43
2023/01/01 08:46:42;;;;;;;3.50;1.97;;;;;;;;;;5011229;28;20453;-43
2023/01/01 08:49:08;;;;;;;5.37;2.47;;;;;;;;;;5003971;28;20427;-44
2023/01/01 08:51:34;;;;;;;4.23;2.10;;;;;;;;;;5010183;28;20554;-44
2023/01/01 08:54:00;;;;;;;5.33;2.13;;;;;;;;;;5011562;28;20409;-44
2023/01/01 08:56:26;;;;;;;5.43;2.20;;;;;;;;;;5007368;28;20415;-43
2023/01/01 08:58:52;;;;;;;7.17;2.03;;;;;;;;;;5011234;28;20790;-44
2023/01/01 09:01:20;;;;;;;9.50;2.57;;;;;;;;;;5011619;28;20411;-43
2023/01/01 09:03:46;;;;;;;3.20;2.50;;;;;;;;;;5003881;28;20972;-44
2023/01/01 09:06:13;;;;;;;3.70;2.80;;;;;;;;;;5010124;28;20463;-43
2023/01/01 09:08:39;;;;;;;4.20;1.80;;;;;;;;;;5011305;28;20814;-43
2023/01/01 09:11:05;;;;;;;5.47;2.27;;;;;;;;;;5007193;28;20461;-43
2023/01/01 09:13:33;;;;;;;3.93;2.17;;;;;;;;;;5011393;28;20438;-43
2023/01/01 09:15:59;;;;;;;3.13;2.20;;;;;;;;;;5011546;28;20967;-43
2023/01/01 09:18:24;;;;;;;5.53;2.73;;;;;;;;;;5006837;28;20713;-43
2023/01/01 09:20:50;;;;;;;6.80;2.10;;;;;;;;;;5013798;28;20412;-43
2023/01/01 09:23:17;;;;;;;6.10;2.40;;;;;;;;;;5014955;28;20906;-43
2023/01/01 09:25:42;;;;;;;9.10;2.30;;;;;;;;;;5012727;28;20414;-43
2023/01/01 09:28:11;;;;;;;4.00;2.20;;;;;;;;;;5008959;28;20457;-44
2023/01/01 09:30:37;;;;;;;4.30;2.20;;;;;;;;;;5014620;28;20471;-44
2023/01/01 09:33:03;;;;;;;3.43;1.97;;;;;;;;;;5014726;28;20477;-44
2023/01/01 09:35:30;;;;;;;4.57;2.20;;;;;;;;;;5012369;28;20408;-44
2023/01/01 09:37:56;;;;;;;6.30;2.20;;;;;;;;;;5014513;28;20447;-44
2023/01/01 09:40:31;;;;;;;5.33;3.10;;;;;;;;;;5014625;28;20516;-43
2023/01/01 09:43:01;;;;;;;5.63;2.23;;;;;;;;;;5012736;28;20415;-43
2023/01/01 09:45:28;;;;;;;4.50;2.10;;;;;;;;;;5007152;28;20422;-43
2023/01/01 09:48:14;;;;;;;8.40;2.57;;;;;;;;;;5006937;28;20519;-43
2023/01/01 09:50:44;;;;;;;4.70;2.03;;;;;;;;;;5011734;28;20465;-43
2023/01/01 09:53:13;;;;;;;5.10;2.50;;;;;;;;;;5014576;28;20421;-43
2023/01/01 09:55:56;;;;;;;6.70;2.70;;;;;;;;;;5008601;28;20412;-43
2023/01/01 09:58:31;;;;;;;6.77;2.37;;;;;;;;;;5014312;28;20446;-43
2023/01/01 10:01:01;;;;;;;4.07;2.20;;;;;;;;;;5006038;28;20441;-44
2023/01/01 10:03:42;;;;;;;3.80;3.40;;;;;;;;;;5012109;28;20454;-44
2023/01/01 10:06:08;;;;;;;5.80;2.13;;;;;;;;;;5008627;28;20403;-45
2023/01/01 10:08:37;;;;;;;6.63;2.33;;;;;;;;;;5012391;28;20844;-47
2023/01/01 10:11:12;;;;;;;6.37;3.10;;;;;;;;;;5005939;28;20466;-43
2023/01/01 10:13:41;;;;;;;5.60;2.40;;;;;;;;;;5014313;28;20424;-45
2023/01/01 10:16:19;;;;;;;5.73;2.80;;;;;;;;;;5013688;28;20672;-44
2023/01/01 10:18:47;;;;;;;4.80;2.63;;;;;;;;;;5010379;28;20436;-45
2023/01/01 10:21:21;;;;;;;15.73;5.40;;;;;;;;;;5014071;28;20422;-46
2023/01/01 10:23:49;;;;;;;7.27;2.17;;;;;;;;;;5013246;28;20493;-46
2023/01/01 10:26:17;;;;;;;4.20;2.20;;;;;;;;;;5008732;28;20422;-46
2023/01/01 10:29:01;;;;;;;3.47;2.17;;;;;;;;;;5013896;28;20439;-44
2023/01/01 10:31:30;;;;;;;6.10;2.17;;;;;;;;;;5012914;28;20978;-45
2023/01/01 10:33:57;;;;;;;5.60;2.20;;;;;;;;;;5009095;28;20502;-46
2023/01/01 10:36:23;;;;;;;9.50;2.87;;;;;;;;;;5008868;28;20494;-46
2023/01/01 10:38:49;;;;;;;5.43;2.40;;;;;;;;;;5013655;28;20439;-44
2023/01/01 10:41:16;;;;;;;5.07;2.27;;;;;;;;;;5012433;28;20480;-45
2023/01/01 10:43:42;;;;;;;4.23;2.53;;;;;;;;;;5013873;28;20415;-46
2023/01/01 10:46:12;;;;;;;5.73;3.63;;;;;;;;;;5013091;28;20403;-45
2023/01/01 10:48:38;;;;;;;4.80;2.83;;;;;;;;;;5013737;28;20426;-45
2023/01/01 10:51:05;;;;;;;4.00;2.20;;;;;;;;;;5013365;28;20600;-46
2023/01/01 10:53:34;;;;;;;9.93;3.10;;;;;;;;;;4998984;28;20416;-45
2023/01/01 10:56:00;;;;;;;5.37;1.63;;;;;;;;;;5005969;28;20429;-47
2023/01/01 10:58:40;;;;;;;5.17;1.90;;;;;;;;;;5013140;28;20435;-45
2023/01/01 11:01:07;;;;;;;6.27;2.70;;;;;;;;;;5013172;28;20425;-45
2023/01/01 11:03:34;;;;;;;7.13;2.63;;;;;;;;;;5013409;28;20442;-44
2023/01/01 11:06:20;;;;;;;5.90;1.80;;;;;;;;;;5013224;28;20422;-45
2023/01/01 11:08:50;;;;;;;5.05;2.20;;;;;;;;;;5011991;28;21099;-45
2023/01/01 11:11:20;;;;;;;5.80;2.33;;;;;;;;;;5013042;28;20559;-45
2023/01/01 11:13:50;;;;;;;7.10;2.60;;;;;;;;;;5013513;28;20465;-44
2023/01/01 11:16:16;;;;;;;7.03;2.03;;;;;;;;;;5013086;28;20464;-45
2023/01/01 11:18:42;;;;;;;6.43;1.80;;;;;;;;;;5013040;28;20902;-46
2023/01/01 11:21:08;;;;;;;5.10;2.33;;;;;;;;;;5013251;28;20414;-45
2023/01/01 11:23:35;;;;;;;7.70;2.20;;;;;;;;;;5012921;28;20421;-45
2023/01/01 11:26:13;;;;;;;6.20;1.90;;;;;;;;;;5012767;28;20851;-44
2023/01/01 11:28:40;;;;;;;5.43;2.43;;;;;;;;;;5012913;28;20522;-47
2023/01/01 11:31:09;;;;;;;3.20;1.90;;;;;;;;;;5011666;28;20466;-43
2023/01/01 11:33:37;;;;;;;4.73;2.17;;;;;;;;;;4993866;28;20603;-45
2023/01/01 11:36:04;;;;;;;4.17;1.80;;;;;;;;;;4992907;28;20419;-45
2023/01/01 11:38:30;;;;;;;3.33;2.20;;;;;;;;;;4993234;28;21040;-45
2023/01/01 11:41:01;;;;;;;7.50;2.40;;;;;;;;;;4993200;28;20452;-44
2023/01/01 11:43:27;;;;;;;6.90;4.53;;;;;;;;;;4992432;28;20422;-46
2023/01/01 11:45:55;;;;;;;6.73;2.40;;;;;;;;;;4992804;28;20424;-45
2023/01/01 11:48:30;;;;;;;4.30;2.17;;;;;;;;;;4992796;28;20455;-45
2023/01/01 11:50:57;;;;;;;7.53;2.60;;;;;;;;;;4992868;28;20470;-46
2023/01/01 11:53:26;;;;;;;6.97;2.97;;;;;;;;;;4993459;28;20412;-46
2023/01/01 11:55:54;;;;;;;6.83;2.33;;;;;;;;;;5012525;28;20400;-45
2023/01/01 11:58:35;;;;;;;7.63;2.73;;;;;;;;;;5009554;28;20806;-45
2023/01/01 12:01:04;;;;;;;6.50;2.50;;;;;;;;;;5009214;28;20933;-45
2023/01/01 12:03:33;;;;;;;7.60;3.90;;;;;;;;;;5006504;28;20419;-45
2023/01/01 12:06:03;;;;;;;7.47;2.43;;;;;;;;;;5004070;28;20418;-44
2023/01/01 12:08:44;;;;;;;3.67;2.60;;;;;;;;;;5010677;28;21123;-45
2023/01/01 12:11:20;;;;;;;3.70;1.90;;;;;;;;;;5012092;28;20481;-45
2023/01/01 12:14:15;;;;;;;5.87;2.70;;;;;;;;;;5007871;28;20422;-44
2023/01/01 12:16:47;;;;;;;4.30;2.60;;;;;;;;;;4944546;28;21016;-45
2023/01/01 12:19:23;;;;;;;4.93;2.40;;;;;;;;;;5006693;28;20407;-45
2023/01/01 12:21:50;;;;;;;6.13;2.97;;;;;;;;;;5010282;28;20988;-45
2023/01/01 12:24:17;;;;;;;6.00;2.47;;;;;;;;;;5005483;28;20419;-45
2023/01/01 12:26:46;;;;;;;6.40;2.30;;;;;;;;;;5011823;28;20952;-45
2023/01/01 12:29:27;;;;;;;7.50;2.43;;;;;;;;;;5011821;28;20433;-45
2023/01/01 12:32:13;;;;;;;4.80;2.30;;;;;;;;;;5011881;28;20996;-47
2023/01/01 12:34:46;;;;;;;23.23;3.80;;;;;;;;;;5012402;28;20907;-43
2023/01/01 12:37:31;;;;;;;8.73;2.87;;;;;;;;;;5010864;28;20453;-43
2023/01/01 12:40:02;;;;;;;5.77;2.27;;;;;;;;;;5011011;28;20388;-43
2023/01/01 12:42:28;;;;;;;3.87;2.10;;;;;;;;;;5011281;28;20923;-44
2023/01/01 12:45:11;;;;;;;6.33;1.80;;;;;;;;;;5010729;28;20429;-43
2023/01/01 12:48:10;;;;;;;5.80;2.17;;;;;;;;;;5010064;28;20423;-44
2023/01/01 12:50:51;;;;;;;5.10;2.17;;;;;;;;;;4966956;28;21181;-43
2023/01/01 12:53:32;;;;;;;6.03;2.73;;;;;;;;;;5010711;28;20472;-43
2023/01/01 12:56:28;;;;;;;3.93;2.20;;;;;;;;;;5006362;28;21130;-44
2023/01/01 12:58:56;;;;;;;7.30;2.70;;;;;;;;;;4986567;28;20447;-43
2023/01/01 13:01:26;;;;;;;6.73;2.20;;;;;;;;;;5010441;28;20427;-43
2023/01/01 13:03:57;;;;;;;6.27;2.00;;;;;;;;;;5015020;28;20411;-43
2023/01/01 13:06:27;;;;;;;4.40;2.20;;;;;;;;;;5014624;28;20438;-43
2023/01/01 13:08:56;;;;;;;5.43;2.77;;;;;;;;;;5014612;28;20431;-43
2023/01/01 13:11:25;;;;;;;7.17;3.80;;;;;;;;;;4995702;28;20471;-44
2023/01/01 13:13:51;;;;;;;7.47;2.80;;;;;;;;;;4995687;28;20878;-44
2023/01/01 13:16:32;;;;;;;7.40;2.43;;;;;;;;;;4995607;28;20521;-43
2023/01/01 13:18:58;;;;;;;9.73;2.60;;;;;;;;;;4995548;28;20523;-43
2023/01/01 13:21:26;;;;;;;5.33;2.53;;;;;;;;;;4995517;28;20769;-43
2023/01/01 13:23:53;;;;;;;13.40;3.30;;;;;;;;;;4999786;28;20901;-43
2023/01/01 13:26:20;;;;;;;3.60;2.40;;;;;;;;;;5010502;28;20419;-43
2023/01/01 13:28:52;;;;;;;3.27;2.33;;;;;;;;;;5002107;28;20494;-43
2023/01/01 13:31:18;;;;;;;5.50;2.60;;;;;;;;;;5004925;28;21032;-43
2023/01/01 13:33:44;;;;;;;5.47;2.23;;;;;;;;;;5012816;28;20411;-43
2023/01/01 13:36:19;;;;;;;10.20;2.37;;;;;;;;;;5013020;28;20443;-43
2023/01/01 13:38:52;;;;;;;6.90;2.87;;;;;;;;;;5013220;28;20451;-43
2023/01/01 13:41:27;;;;;;;5.73;2.10;;;;;;;;;;5012167;28;20647;-43
2023/01/01 13:44:09;;;;;;;5.10;2.80;;;;;;;;;;5013165;28;20415;-44
2023/01/01 13:46:50;;;;;;;6.20;1.93;;;;;;;;;;5012247;28;20445;-43
2023/01/01 13:49:34;;;;;;;7.13;2.67;;;;;;;;;;5003605;28;20434;-43
2023/01/01 13:52:19;;;;;;;5.47;1.93;;;;;;;;;;5013248;28;20479;-43
2023/01/01 13:54:45;;;;;;;7.13;2.47;;;;;;;;;;5013036;28;20418;-43
2023/01/01 13:57:11;;;;;;;4.70;2.23;;;;;;;;;;5012486;28;20441;-43
2023/01/01 13:59:51;;;;;;;3.80;1.87;;;;;;;;;;5013936;28;20399;-44
2023/01/01 14:02:28;;;;;;;10.53;2.67;;;;;;;;;;5013432;28;20432;-44
2023/01/01 14:04:54;;;;;;;6.33;2.20;;;;;;;;;;5011295;28;20440;-43
2023/01/01 14:07:23;;;;;;;4.00;2.23;;;;;;;;;;5011194;28;20972;-46
2023/01/01 14:09:49;;;;;;;6.50;2.13;;;;;;;;;;5012945;28;20490;-44
2023/01/01 14:12:16;;;;;;;6.03;2.37;;;;;;;;;;5012791;28;20425;-46
2023/01/01 14:14:42;;;;;;;10.40;3.00;;;;;;;;;;5013736;28;20981;-47
2023/01/01 14:17:09;;;;;;;6.77;2.37;;;;;;;;;;5013598;28;20530;-46
2023/01/01 14:19:35;;;;;;;8.50;3.43;;;;;;;;;;5013771;28;20415;-46
2023/01/01 14:22:01;;;;;;;4.73;2.53;;;;;;;;;;5008541;28;20427;-47
2023/01/01 14:24:27;;;;;;;11.20;2.73;;;;;;;;;;5010328;28;20407;-46
2023/01/01 14:26:54;;;;;;;5.40;1.90;;;;;;;;;;5012636;28;20784;-44
2023/01/01 14:29:20;;;;;;;9.37;3.03;;;;;;;;;;5014021;28;20426;-44
2023/01/01 14:31:46;;;;;;;8.53;2.20;;;;;;;;;;5011700;28;20462;-44
2023/01/01 14:34:13;;;;;;;5.67;2.30;;;;;;;;;;5014337;28;20461;-46
2023/01/01 14:36:48;;;;;;;7.43;2.57;;;;;;;;;;5008528;28;20987;-46
2023/01/01 14:39:34;;;;;;;9.30;3.27;;;;;;;;;;5014053;28;20506;-46
2023/01/01 14:42:13;;;;;;;6.40;2.53;;;;;;;;;;4999329;28;20830;-47
2023/01/01 14:44:40;;;;;;;3.43;2.60;;;;;;;;;;5011961;28;20431;-45
2023/01/01 14:47:18;;;;;;;8.53;2.63;;;;;;;;;;5013844;28;20430;-46
2023/01/01 14:49:44;;;;;;;7.20;2.13;;;;;;;;;;5014034;28;20441;-46
2023/01/01 14:52:18;;;;;;;10.63;2.87;;;;;;;;;;5009267;28;20414;-45
2023/01/01 14:54:44;;;;;;;6.30;2.60;;;;;;;;;;5014180;28;20410;-45